MTN8307 KEWR-KMDT
Flight info
| Callsign | MTN8307 |
|---|---|
| Flight time | 0h 51m |
| Altitude | 6000 |
| Route | SBJ T430 ETX |
| Aircraft | C208/L-SDFGR/C |
Departure
| Time | 2026-04-23 20:04 |
|---|---|
| Airport | Newark Liberty International Airport (KEWR) |
Arrival
| Time | 2026-04-23 20:56 |
|---|---|
| Airport | Harrisburg International Airport (KMDT) |
| Time | Latitude | Longitude | Altitude | Speed | Heading |
|---|---|---|---|---|---|
| 2026-04-23 19:54 | 40.67464 | -74.18334 | 17 ft | 0 kts | 341° |
| 2026-04-23 20:00 | 40.67470 | -74.18331 | 17 ft | 3 kts | 45° |
| 2026-04-23 20:01 | 40.67465 | -74.18274 | 16 ft | 5 kts | 37° |
| 2026-04-23 20:01 | 40.67529 | -74.18231 | 16 ft | 15 kts | 26° |
| 2026-04-23 20:01 | 40.67631 | -74.18164 | 19 ft | 15 kts | 39° |
| 2026-04-23 20:01 | 40.67614 | -74.18070 | 18 ft | 13 kts | 130° |
| 2026-04-23 20:02 | 40.67595 | -74.18040 | 18 ft | 0 kts | 129° |
| 2026-04-23 20:02 | 40.67590 | -74.18032 | 18 ft | 5 kts | 131° |
| 2026-04-23 20:02 | 40.67553 | -74.17955 | 19 ft | 14 kts | 112° |
| 2026-04-23 20:03 | 40.67564 | -74.17926 | 19 ft | 0 kts | 24° |
| 2026-04-23 20:03 | 40.67641 | -74.17876 | 17 ft | 38 kts | 28° |
| 2026-04-23 20:03 | 40.68025 | -74.17636 | 18 ft | 81 kts | 22° |
| 2026-04-23 20:03 | 40.68592 | -74.17276 | 137 ft | 95 kts | 24° |
| 2026-04-23 20:04 | 40.69165 | -74.16907 | 412 ft | 89 kts | 25° |
| 2026-04-23 20:04 | 40.69742 | -74.16509 | 550 ft | 103 kts | 25° |
| 2026-04-23 20:04 | 40.70436 | -74.16212 | 744 ft | 110 kts | 357° |
| 2026-04-23 20:04 | 40.71088 | -74.16652 | 1000 ft | 111 kts | 303° |
| 2026-04-23 20:05 | 40.71498 | -74.17513 | 1291 ft | 109 kts | 298° |
| 2026-04-23 20:05 | 40.71845 | -74.18410 | 1559 ft | 111 kts | 289° |
| 2026-04-23 20:05 | 40.72093 | -74.19381 | 1832 ft | 112 kts | 288° |
| 2026-04-23 20:05 | 40.72346 | -74.20355 | 2109 ft | 113 kts | 286° |
| 2026-04-23 20:06 | 40.72261 | -74.21356 | 2378 ft | 113 kts | 242° |
| 2026-04-23 20:06 | 40.71927 | -74.22300 | 2642 ft | 114 kts | 249° |
| 2026-04-23 20:06 | 40.71647 | -74.23279 | 2923 ft | 114 kts | 249° |
| 2026-04-23 20:06 | 40.71378 | -74.24257 | 3173 ft | 114 kts | 250° |
| 2026-04-23 20:07 | 40.71114 | -74.25242 | 3445 ft | 111 kts | 257° |
| 2026-04-23 20:07 | 40.70873 | -74.26164 | 3754 ft | 107 kts | 257° |
| 2026-04-23 20:07 | 40.70629 | -74.27101 | 3963 ft | 110 kts | 258° |
| 2026-04-23 20:07 | 40.70378 | -74.28057 | 4184 ft | 110 kts | 258° |
| 2026-04-23 20:08 | 40.70130 | -74.29010 | 4450 ft | 109 kts | 257° |
| 2026-04-23 20:08 | 40.69886 | -74.29957 | 4723 ft | 109 kts | 258° |
| 2026-04-23 20:08 | 40.69640 | -74.30907 | 4977 ft | 109 kts | 258° |
| 2026-04-23 20:08 | 40.69394 | -74.31849 | 5205 ft | 109 kts | 257° |
| 2026-04-23 20:09 | 40.69148 | -74.32792 | 5463 ft | 108 kts | 258° |
| 2026-04-23 20:09 | 40.68904 | -74.33734 | 5740 ft | 109 kts | 259° |
| 2026-04-23 20:09 | 40.68661 | -74.34671 | 5981 ft | 110 kts | 257° |
| 2026-04-23 20:09 | 40.68396 | -74.35697 | 6027 ft | 127 kts | 257° |
| 2026-04-23 20:10 | 40.68205 | -74.36454 | 6027 ft | 135 kts | 256° |
| 2026-04-23 20:10 | 40.67781 | -74.38080 | 6028 ft | 145 kts | 257° |
| 2026-04-23 20:10 | 40.67444 | -74.39361 | 6028 ft | 150 kts | 256° |
| 2026-04-23 20:10 | 40.67102 | -74.40664 | 6026 ft | 151 kts | 256° |
| 2026-04-23 20:11 | 40.66758 | -74.41985 | 6021 ft | 153 kts | 256° |
| 2026-04-23 20:11 | 40.66407 | -74.43328 | 6028 ft | 157 kts | 255° |
| 2026-04-23 20:11 | 40.66054 | -74.44678 | 6024 ft | 158 kts | 255° |
| 2026-04-23 20:11 | 40.65693 | -74.46049 | 6025 ft | 159 kts | 256° |
| 2026-04-23 20:12 | 40.65332 | -74.47429 | 6001 ft | 160 kts | 256° |
| 2026-04-23 20:12 | 40.64963 | -74.48837 | 5992 ft | 163 kts | 255° |
| 2026-04-23 20:12 | 40.64594 | -74.50252 | 5992 ft | 163 kts | 256° |
| 2026-04-23 20:12 | 40.64225 | -74.51659 | 5993 ft | 163 kts | 255° |
| 2026-04-23 20:13 | 40.63850 | -74.53081 | 5987 ft | 165 kts | 255° |
| 2026-04-23 20:13 | 40.63480 | -74.54496 | 5983 ft | 163 kts | 255° |
| 2026-04-23 20:13 | 40.63113 | -74.55899 | 5986 ft | 162 kts | 255° |
| 2026-04-23 20:13 | 40.62744 | -74.57303 | 5992 ft | 163 kts | 255° |
| 2026-04-23 20:14 | 40.62368 | -74.58729 | 5980 ft | 163 kts | 254° |
| 2026-04-23 20:14 | 40.62009 | -74.60100 | 5988 ft | 163 kts | 255° |
| 2026-04-23 20:14 | 40.61638 | -74.61504 | 5982 ft | 162 kts | 255° |
| 2026-04-23 20:14 | 40.61264 | -74.62904 | 5980 ft | 162 kts | 255° |
| 2026-04-23 20:15 | 40.60898 | -74.64310 | 5987 ft | 162 kts | 256° |
| 2026-04-23 20:15 | 40.60531 | -74.65709 | 5988 ft | 162 kts | 255° |
| 2026-04-23 20:15 | 40.60161 | -74.67114 | 5984 ft | 163 kts | 256° |
| 2026-04-23 20:15 | 40.59798 | -74.68498 | 5991 ft | 162 kts | 256° |
| 2026-04-23 20:16 | 40.59418 | -74.69906 | 5988 ft | 164 kts | 254° |
| 2026-04-23 20:16 | 40.59039 | -74.71317 | 5995 ft | 164 kts | 256° |
| 2026-04-23 20:16 | 40.58674 | -74.72750 | 5990 ft | 165 kts | 255° |
| 2026-04-23 20:16 | 40.58308 | -74.74181 | 5996 ft | 165 kts | 258° |
| 2026-04-23 20:17 | 40.58159 | -74.75662 | 5983 ft | 162 kts | 269° |
| 2026-04-23 20:17 | 40.58056 | -74.77124 | 5995 ft | 160 kts | 268° |
| 2026-04-23 20:17 | 40.57940 | -74.78588 | 5997 ft | 161 kts | 267° |
| 2026-04-23 20:17 | 40.57817 | -74.80065 | 5998 ft | 164 kts | 268° |
| 2026-04-23 20:18 | 40.57697 | -74.81534 | 5996 ft | 164 kts | 268° |
| 2026-04-23 20:18 | 40.57579 | -74.83017 | 5994 ft | 163 kts | 268° |
| 2026-04-23 20:18 | 40.57460 | -74.84502 | 5991 ft | 164 kts | 267° |
| 2026-04-23 20:18 | 40.57339 | -74.85984 | 5990 ft | 162 kts | 268° |
| 2026-04-23 20:19 | 40.57219 | -74.87458 | 5997 ft | 162 kts | 267° |
| 2026-04-23 20:19 | 40.57092 | -74.88937 | 5989 ft | 163 kts | 268° |
| 2026-04-23 20:19 | 40.56983 | -74.90426 | 5989 ft | 163 kts | 268° |
| 2026-04-23 20:19 | 40.56868 | -74.91917 | 5995 ft | 165 kts | 267° |
| 2026-04-23 20:20 | 40.56734 | -74.93408 | 6003 ft | 165 kts | 266° |
| 2026-04-23 20:20 | 40.56610 | -74.94904 | 6002 ft | 164 kts | 268° |
| 2026-04-23 20:20 | 40.56488 | -74.96369 | 5998 ft | 162 kts | 267° |
| 2026-04-23 20:20 | 40.56367 | -74.97840 | 5995 ft | 161 kts | 267° |
| 2026-04-23 20:21 | 40.56248 | -74.99308 | 6011 ft | 163 kts | 268° |
| 2026-04-23 20:21 | 40.56125 | -75.00799 | 6017 ft | 165 kts | 268° |
| 2026-04-23 20:21 | 40.55998 | -75.02308 | 6022 ft | 167 kts | 267° |
| 2026-04-23 20:21 | 40.55875 | -75.03825 | 6022 ft | 167 kts | 268° |
| 2026-04-23 20:22 | 40.55751 | -75.05340 | 6014 ft | 166 kts | 267° |
| 2026-04-23 20:22 | 40.55626 | -75.06843 | 6010 ft | 165 kts | 267° |
| 2026-04-23 20:22 | 40.55498 | -75.08318 | 6008 ft | 164 kts | 268° |
| 2026-04-23 20:22 | 40.55380 | -75.09806 | 6022 ft | 163 kts | 268° |
| 2026-04-23 20:23 | 40.55257 | -75.11287 | 6016 ft | 162 kts | 267° |
| 2026-04-23 20:23 | 40.55134 | -75.12753 | 6017 ft | 161 kts | 267° |
| 2026-04-23 20:23 | 40.55011 | -75.14217 | 6017 ft | 160 kts | 268° |
| 2026-04-23 20:23 | 40.54890 | -75.15667 | 6018 ft | 159 kts | 268° |
| 2026-04-23 20:24 | 40.54769 | -75.17110 | 6020 ft | 160 kts | 267° |
| 2026-04-23 20:24 | 40.54656 | -75.18564 | 6016 ft | 159 kts | 271° |
| 2026-04-23 20:24 | 40.54746 | -75.19976 | 6020 ft | 157 kts | 279° |
| 2026-04-23 20:24 | 40.54860 | -75.21427 | 6036 ft | 162 kts | 277° |
| 2026-04-23 20:25 | 40.54955 | -75.22916 | 6017 ft | 163 kts | 278° |
| 2026-04-23 20:25 | 40.55065 | -75.24390 | 6018 ft | 161 kts | 278° |
| 2026-04-23 20:25 | 40.55174 | -75.25865 | 6018 ft | 163 kts | 278° |
| 2026-04-23 20:25 | 40.55274 | -75.27361 | 6026 ft | 165 kts | 278° |
| 2026-04-23 20:26 | 40.55378 | -75.28867 | 6025 ft | 166 kts | 279° |
| 2026-04-23 20:26 | 40.55491 | -75.30374 | 6014 ft | 164 kts | 278° |
| 2026-04-23 20:26 | 40.55599 | -75.31862 | 6014 ft | 163 kts | 277° |
| 2026-04-23 20:26 | 40.55690 | -75.33319 | 6010 ft | 161 kts | 277° |
| 2026-04-23 20:27 | 40.55791 | -75.34783 | 6006 ft | 161 kts | 278° |
| 2026-04-23 20:27 | 40.55896 | -75.36247 | 6015 ft | 161 kts | 278° |
| 2026-04-23 20:27 | 40.55999 | -75.37712 | 6011 ft | 160 kts | 278° |
| 2026-04-23 20:27 | 40.56101 | -75.39173 | 6008 ft | 161 kts | 278° |
| 2026-04-23 20:28 | 40.56204 | -75.40636 | 6013 ft | 161 kts | 277° |
| 2026-04-23 20:28 | 40.56305 | -75.42114 | 6011 ft | 164 kts | 278° |
| 2026-04-23 20:28 | 40.56408 | -75.43586 | 6015 ft | 158 kts | 276° |
| 2026-04-23 20:28 | 40.56498 | -75.45015 | 6036 ft | 158 kts | 277° |
| 2026-04-23 20:29 | 40.56602 | -75.46448 | 6013 ft | 160 kts | 278° |
| 2026-04-23 20:29 | 40.56710 | -75.47912 | 6022 ft | 162 kts | 278° |
| 2026-04-23 20:29 | 40.56810 | -75.49398 | 6017 ft | 164 kts | 277° |
| 2026-04-23 20:29 | 40.56907 | -75.50886 | 6013 ft | 162 kts | 277° |
| 2026-04-23 20:30 | 40.57007 | -75.52362 | 6014 ft | 163 kts | 277° |
| 2026-04-23 20:30 | 40.57211 | -75.55331 | 6019 ft | 165 kts | 277° |
| 2026-04-23 20:30 | 40.57314 | -75.56834 | 6013 ft | 165 kts | 277° |
| 2026-04-23 20:31 | 40.57416 | -75.58325 | 6010 ft | 163 kts | 277° |
| 2026-04-23 20:31 | 40.57512 | -75.59782 | 6009 ft | 161 kts | 277° |
| 2026-04-23 20:31 | 40.57611 | -75.61254 | 6007 ft | 162 kts | 278° |
| 2026-04-23 20:31 | 40.57710 | -75.62729 | 6017 ft | 163 kts | 277° |
| 2026-04-23 20:32 | 40.57811 | -75.64216 | 6017 ft | 164 kts | 276° |
| 2026-04-23 20:32 | 40.57576 | -75.65691 | 6024 ft | 172 kts | 245° |
| 2026-04-23 20:32 | 40.56824 | -75.66932 | 6032 ft | 174 kts | 232° |
| 2026-04-23 20:32 | 40.56019 | -75.68122 | 6032 ft | 173 kts | 234° |
| 2026-04-23 20:33 | 40.55283 | -75.69364 | 6023 ft | 175 kts | 237° |
| 2026-04-23 20:33 | 40.54563 | -75.70643 | 6021 ft | 174 kts | 238° |
| 2026-04-23 20:33 | 40.53844 | -75.71924 | 6026 ft | 174 kts | 238° |
| 2026-04-23 20:33 | 40.53128 | -75.73204 | 6022 ft | 174 kts | 237° |
| 2026-04-23 20:34 | 40.52401 | -75.74467 | 6026 ft | 173 kts | 237° |
| 2026-04-23 20:34 | 40.51687 | -75.75734 | 6019 ft | 172 kts | 238° |
| 2026-04-23 20:34 | 40.50975 | -75.77012 | 5853 ft | 174 kts | 237° |
| 2026-04-23 20:34 | 40.50271 | -75.78264 | 5830 ft | 170 kts | 238° |
| 2026-04-23 20:35 | 40.49577 | -75.79483 | 5990 ft | 161 kts | 237° |
| 2026-04-23 20:35 | 40.48910 | -75.80669 | 6016 ft | 163 kts | 238° |
| 2026-04-23 20:35 | 40.48230 | -75.81870 | 6013 ft | 164 kts | 237° |
| 2026-04-23 20:35 | 40.47549 | -75.83064 | 6019 ft | 164 kts | 238° |
| 2026-04-23 20:36 | 40.46873 | -75.84265 | 6010 ft | 164 kts | 238° |
| 2026-04-23 20:36 | 40.46197 | -75.85464 | 6016 ft | 164 kts | 238° |
| 2026-04-23 20:36 | 40.45520 | -75.86673 | 6016 ft | 165 kts | 238° |
| 2026-04-23 20:36 | 40.44824 | -75.87888 | 6025 ft | 168 kts | 237° |
| 2026-04-23 20:37 | 40.44131 | -75.89114 | 6025 ft | 171 kts | 237° |
| 2026-04-23 20:37 | 40.43420 | -75.90374 | 6029 ft | 173 kts | 237° |
| 2026-04-23 20:37 | 40.42686 | -75.91656 | 6014 ft | 176 kts | 237° |
| 2026-04-23 20:37 | 40.41960 | -75.92926 | 6023 ft | 173 kts | 238° |
| 2026-04-23 20:38 | 40.41247 | -75.94200 | 6012 ft | 172 kts | 237° |
| 2026-04-23 20:38 | 40.40533 | -75.95457 | 6021 ft | 173 kts | 238° |
| 2026-04-23 20:38 | 40.39818 | -75.96716 | 6012 ft | 171 kts | 237° |
| 2026-04-23 20:38 | 40.39106 | -75.97966 | 6011 ft | 170 kts | 237° |
| 2026-04-23 20:39 | 40.38400 | -75.99197 | 6009 ft | 172 kts | 238° |
| 2026-04-23 20:39 | 40.37694 | -76.00450 | 6010 ft | 170 kts | 238° |
| 2026-04-23 20:39 | 40.36996 | -76.01685 | 6012 ft | 167 kts | 238° |
| 2026-04-23 20:39 | 40.36294 | -76.02913 | 6015 ft | 168 kts | 238° |
| 2026-04-23 20:40 | 40.35596 | -76.04135 | 6018 ft | 166 kts | 238° |
| 2026-04-23 20:40 | 40.34902 | -76.05364 | 6020 ft | 169 kts | 239° |
| 2026-04-23 20:40 | 40.34198 | -76.06601 | 6019 ft | 169 kts | 238° |
| 2026-04-23 20:40 | 40.33493 | -76.07832 | 6022 ft | 170 kts | 238° |
| 2026-04-23 20:41 | 40.32791 | -76.09075 | 6022 ft | 170 kts | 238° |
| 2026-04-23 20:41 | 40.32078 | -76.10312 | 6019 ft | 171 kts | 238° |
| 2026-04-23 20:41 | 40.31376 | -76.11536 | 6035 ft | 170 kts | 238° |
| 2026-04-23 20:41 | 40.30658 | -76.12795 | 6017 ft | 169 kts | 238° |
| 2026-04-23 20:42 | 40.29967 | -76.14007 | 6016 ft | 168 kts | 238° |
| 2026-04-23 20:42 | 40.29267 | -76.15229 | 6021 ft | 169 kts | 239° |
| 2026-04-23 20:42 | 40.28558 | -76.16472 | 6028 ft | 170 kts | 239° |
| 2026-04-23 20:42 | 40.27851 | -76.17718 | 6036 ft | 171 kts | 239° |
| 2026-04-23 20:43 | 40.27130 | -76.18976 | 6038 ft | 174 kts | 239° |
| 2026-04-23 20:43 | 40.26415 | -76.20241 | 6032 ft | 171 kts | 238° |
| 2026-04-23 20:43 | 40.25695 | -76.21477 | 6027 ft | 169 kts | 238° |
| 2026-04-23 20:43 | 40.24997 | -76.22707 | 6026 ft | 168 kts | 239° |
| 2026-04-23 20:44 | 40.24307 | -76.23921 | 6019 ft | 168 kts | 239° |
| 2026-04-23 20:44 | 40.23599 | -76.25145 | 6017 ft | 168 kts | 238° |
| 2026-04-23 20:44 | 40.22892 | -76.26372 | 6019 ft | 170 kts | 238° |
| 2026-04-23 20:44 | 40.22180 | -76.27608 | 6025 ft | 170 kts | 239° |
| 2026-04-23 20:45 | 40.21476 | -76.28841 | 6024 ft | 169 kts | 239° |
| 2026-04-23 20:45 | 40.20775 | -76.30061 | 5869 ft | 169 kts | 238° |
| 2026-04-23 20:45 | 40.20054 | -76.31291 | 5658 ft | 171 kts | 238° |
| 2026-04-23 20:45 | 40.19356 | -76.32550 | 5467 ft | 171 kts | 237° |
| 2026-04-23 20:46 | 40.18646 | -76.33766 | 5271 ft | 171 kts | 237° |
| 2026-04-23 20:46 | 40.17929 | -76.35020 | 5073 ft | 172 kts | 237° |
| 2026-04-23 20:46 | 40.17213 | -76.36265 | 4880 ft | 172 kts | 236° |
| 2026-04-23 20:46 | 40.16494 | -76.37511 | 4683 ft | 172 kts | 236° |
| 2026-04-23 20:47 | 40.15775 | -76.38763 | 4486 ft | 173 kts | 236° |
| 2026-04-23 20:47 | 40.15045 | -76.40019 | 4279 ft | 172 kts | 235° |
| 2026-04-23 20:47 | 40.14326 | -76.41267 | 4101 ft | 171 kts | 237° |
| 2026-04-23 20:47 | 40.13615 | -76.42516 | 3935 ft | 172 kts | 236° |
| 2026-04-23 20:48 | 40.12897 | -76.43760 | 3759 ft | 171 kts | 236° |
| 2026-04-23 20:48 | 40.12180 | -76.44998 | 3588 ft | 172 kts | 236° |
| 2026-04-23 20:48 | 40.11469 | -76.46229 | 3418 ft | 172 kts | 236° |
| 2026-04-23 20:48 | 40.10750 | -76.47463 | 3244 ft | 170 kts | 236° |
| 2026-04-23 20:49 | 40.10036 | -76.48695 | 3073 ft | 170 kts | 236° |
| 2026-04-23 20:49 | 40.09505 | -76.50034 | 3020 ft | 162 kts | 260° |
| 2026-04-23 20:49 | 40.09613 | -76.51426 | 3006 ft | 153 kts | 295° |
| 2026-04-23 20:49 | 40.10129 | -76.52596 | 3034 ft | 146 kts | 297° |
| 2026-04-23 20:50 | 40.10598 | -76.53796 | 2995 ft | 148 kts | 297° |
| 2026-04-23 20:50 | 40.11060 | -76.54982 | 2972 ft | 146 kts | 297° |
| 2026-04-23 20:50 | 40.11507 | -76.56115 | 2996 ft | 136 kts | 298° |
| 2026-04-23 20:50 | 40.11920 | -76.57161 | 2989 ft | 129 kts | 297° |
| 2026-04-23 20:51 | 40.12326 | -76.58191 | 2979 ft | 124 kts | 297° |
| 2026-04-23 20:51 | 40.12706 | -76.59191 | 2904 ft | 125 kts | 297° |
| 2026-04-23 20:51 | 40.13115 | -76.60228 | 2752 ft | 133 kts | 297° |
| 2026-04-23 20:51 | 40.13534 | -76.61326 | 2565 ft | 137 kts | 296° |
| 2026-04-23 20:52 | 40.13965 | -76.62434 | 2401 ft | 136 kts | 296° |
| 2026-04-23 20:52 | 40.14395 | -76.63541 | 2207 ft | 137 kts | 296° |
| 2026-04-23 20:52 | 40.14809 | -76.64622 | 2048 ft | 133 kts | 296° |
| 2026-04-23 20:52 | 40.15215 | -76.65658 | 1870 ft | 119 kts | 296° |
| 2026-04-23 20:53 | 40.15570 | -76.66594 | 1729 ft | 113 kts | 296° |
| 2026-04-23 20:53 | 40.15928 | -76.67485 | 1598 ft | 108 kts | 296° |
| 2026-04-23 20:53 | 40.16243 | -76.68372 | 1418 ft | 108 kts | 293° |
| 2026-04-23 20:53 | 40.16573 | -76.69261 | 1318 ft | 109 kts | 300° |
| 2026-04-23 20:54 | 40.16949 | -76.70132 | 1241 ft | 111 kts | 297° |
| 2026-04-23 20:54 | 40.17305 | -76.71028 | 1089 ft | 109 kts | 293° |
| 2026-04-23 20:54 | 40.17612 | -76.71857 | 928 ft | 98 kts | 295° |
| 2026-04-23 20:54 | 40.17915 | -76.72642 | 762 ft | 95 kts | 295° |
| 2026-04-23 20:55 | 40.18204 | -76.73384 | 631 ft | 90 kts | 295° |
| 2026-04-23 20:55 | 40.18470 | -76.74084 | 488 ft | 80 kts | 296° |
| 2026-04-23 20:55 | 40.18715 | -76.74704 | 374 ft | 72 kts | 297° |
| 2026-04-23 20:55 | 40.18914 | -76.75220 | 312 ft | 54 kts | 295° |
| 2026-04-23 20:56 | 40.19062 | -76.75595 | 315 ft | 24 kts | 300° |
| 2026-04-23 20:56 | 40.19125 | -76.75563 | 313 ft | 12 kts | 43° |
| 2026-04-23 20:56 | 40.19252 | -76.75472 | 314 ft | 26 kts | 43° |
| 2026-04-23 20:56 | 40.19323 | -76.75292 | 313 ft | 25 kts | 96° |
| 2026-04-23 20:57 | 40.19232 | -76.75103 | 312 ft | 25 kts | 99° |
| 2026-04-23 20:57 | 40.19273 | -76.74889 | 312 ft | 25 kts | 100° |
| 2026-04-23 20:57 | 40.19235 | -76.74838 | 312 ft | 0 kts | 236° |